Погода Оутапина неделю

Хардап, Намибия

03 - 09 марта
  • 03марта
    Сегодня
    +21°
    +38°
    Практически безоблачно
    ВремяПогодаТемператураВлажностьДавлениеВетер, м/сВероятность осадков
    02:00Ясно и безоблачно+26°C44 %671 мм3.9 м/с5 %
    05:00Ясно и безоблачно+23°C55 %670 мм3.1 м/с5 %
    08:00Ясно и безоблачно+23°C53 %671 мм3.1 м/с5 %
    11:00Ясно и безоблачно+31°C31 %673 мм1.8 м/с5 %
    14:00Практически безоблачно+35°C21 %672 мм0.6 м/с5 %
    17:00Облачно с прояснениями+37°C17 %671 мм2.2 м/с5 %
    20:00Небольшая облачность+33°C21 %670 мм1.9 м/с5 %
    23:00Ясно и безоблачно+29°C31 %671 мм5.7 м/с5 %
  • 04марта
    Понедельник
    +20°
    +38°
    Ясно и безоблачно
    ВремяПогодаТемператураВлажностьДавлениеВетер, м/сВероятность осадков
    02:00Облачно с прояснениями+26°C40 %671 мм3.5 м/с5 %
    05:00Ясно и безоблачно+23°C44 %670 мм3.5 м/с5 %
    08:00Ясно и безоблачно+23°C45 %671 мм1.9 м/с5 %
    11:00Ясно и безоблачно+31°C26 %672 мм4.0 м/с5 %
    14:00Ясно и безоблачно+36°C17 %671 мм3.3 м/с5 %
    17:00Небольшая облачность+37°C15 %669 мм3.5 м/с5 %
    20:00Практически безоблачно+34°C19 %669 мм5.1 м/с5 %
    23:00Ясно и безоблачно+27°C31 %670 мм8.1 м/с5 %
  • 05марта
    Вторник
    +19°
    +37°
    Ясно и безоблачно
    ВремяПогодаТемператураВлажностьДавлениеВетер, м/сВероятность осадков
    02:00Ясно и безоблачно+24°C37 %670 мм5.6 м/с5 %
    05:00Ясно и безоблачно+22°C43 %669 мм3.7 м/с5 %
    08:00Ясно и безоблачно+22°C43 %671 мм0.9 м/с5 %
    11:00Ясно и безоблачно+28°C17 %672 мм1.4 м/с5 %
    14:00Ясно и безоблачно+34°C14 %671 мм1.8 м/с5 %
    17:00Ясно и безоблачно+37°C14 %669 мм4.2 м/с5 %
    20:00Практически безоблачно+32°C15 %669 мм6.5 м/с5 %
    23:00Ясно и безоблачно+27°C21 %670 мм6.2 м/с5 %
  • 06марта
    Среда
    +18°
    +39°
    Небольшая облачность
    ВремяПогодаТемператураВлажностьДавлениеВетер, м/сВероятность осадков
    02:00Ясно и безоблачно+23°C32 %670 мм4.2 м/с5 %
    05:00Ясно и безоблачно+20°C39 %669 мм4.2 м/с5 %
    08:00Ясно и безоблачно+20°C40 %670 мм0.9 м/с5 %
    11:00Ясно и безоблачно+28°C21 %672 мм1.1 м/с5 %
    14:00Небольшая облачность+35°C11 %671 мм1.0 м/с5 %
    17:00Небольшая облачность+39°C9 %669 мм5.0 м/с5 %
    20:00Практически безоблачно+32°C12 %669 мм9.5 м/с5 %
    23:00Ясно и безоблачно+27°C16 %671 мм6.5 м/с5 %
  • 07марта
    Четверг
    +19°
    +37°
    Ясно и безоблачно
    ВремяПогодаТемператураВлажностьДавлениеВетер, м/сВероятность осадков
    02:00Ясно и безоблачно+23°C31 %671 мм4.6 м/с5 %
    05:00Ясно и безоблачно+20°C35 %670 мм3.9 м/с5 %
    08:00Ясно и безоблачно+21°C12 %671 мм2.7 м/с5 %
    11:00Ясно и безоблачно+28°C13 %673 мм4.0 м/с5 %
    14:00Ясно и безоблачно+34°C13 %671 мм2.7 м/с5 %
    17:00Ясно и безоблачно+37°C10 %670 мм2.7 м/с5 %
    20:00Ясно и безоблачно+33°C13 %669 мм2.9 м/с5 %
    23:00Ясно и безоблачно+28°C17 %670 мм5.5 м/с5 %
Мы используем cookies
Соглашаюсь